sensor_id;sensor_type;location;lat;lon;timestamp;P1;durP1;ratioP1;P2;durP2;ratioP2
77453;SDS011;66538;53.150;18.160;2023-11-21T00:01:14;8.80;;;5.00;;
77453;SDS011;66538;53.150;18.160;2023-11-21T00:03:41;12.30;;;6.10;;
77453;SDS011;66538;53.150;18.160;2023-11-21T00:06:07;9.50;;;5.20;;
77453;SDS011;66538;53.150;18.160;2023-11-21T00:08:37;12.50;;;5.80;;
77453;SDS011;66538;53.150;18.160;2023-11-21T00:11:04;10.60;;;5.50;;
77453;SDS011;66538;53.150;18.160;2023-11-21T00:13:32;11.10;;;6.00;;
77453;SDS011;66538;53.150;18.160;2023-11-21T00:15:58;9.20;;;4.30;;
77453;SDS011;66538;53.150;18.160;2023-11-21T00:18:25;10.10;;;5.40;;
77453;SDS011;66538;53.150;18.160;2023-11-21T00:20:52;10.50;;;5.60;;
77453;SDS011;66538;53.150;18.160;2023-11-21T00:23:18;9.00;;;4.50;;
77453;SDS011;66538;53.150;18.160;2023-11-21T00:25:45;11.10;;;5.80;;
77453;SDS011;66538;53.150;18.160;2023-11-21T00:28:11;8.90;;;4.60;;
77453;SDS011;66538;53.150;18.160;2023-11-21T00:30:38;10.60;;;5.10;;
77453;SDS011;66538;53.150;18.160;2023-11-21T00:33:05;8.80;;;4.70;;
77453;SDS011;66538;53.150;18.160;2023-11-21T00:35:31;9.50;;;4.30;;
77453;SDS011;66538;53.150;18.160;2023-11-21T00:37:58;10.00;;;5.10;;
77453;SDS011;66538;53.150;18.160;2023-11-21T00:40:25;10.80;;;5.40;;
77453;SDS011;66538;53.150;18.160;2023-11-21T00:42:52;10.60;;;4.40;;
77453;SDS011;66538;53.150;18.160;2023-11-21T00:45:19;10.70;;;6.00;;
77453;SDS011;66538;53.150;18.160;2023-11-21T00:47:45;9.80;;;4.30;;
77453;SDS011;66538;53.150;18.160;2023-11-21T00:50:12;11.70;;;5.70;;
77453;SDS011;66538;53.150;18.160;2023-11-21T00:52:38;8.60;;;3.90;;
77453;SDS011;66538;53.150;18.160;2023-11-21T00:55:05;7.80;;;3.90;;
77453;SDS011;66538;53.150;18.160;2023-11-21T00:57:34;8.10;;;4.00;;
77453;SDS011;66538;53.150;18.160;2023-11-21T01:00:01;7.40;;;3.60;;
77453;SDS011;66538;53.150;18.160;2023-11-21T01:02:33;10.60;;;4.90;;
77453;SDS011;66538;53.150;18.160;2023-11-21T01:05:02;9.40;;;4.50;;
77453;SDS011;66538;53.150;18.160;2023-11-21T01:07:28;7.80;;;3.70;;
77453;SDS011;66538;53.150;18.160;2023-11-21T01:09:55;10.30;;;4.70;;
77453;SDS011;66538;53.150;18.160;2023-11-21T01:12:22;7.70;;;3.40;;
77453;SDS011;66538;53.150;18.160;2023-11-21T01:14:51;10.40;;;5.10;;
77453;SDS011;66538;53.150;18.160;2023-11-21T01:17:18;8.70;;;4.20;;
77453;SDS011;66538;53.150;18.160;2023-11-21T01:19:45;7.00;;;3.70;;
77453;SDS011;66538;53.150;18.160;2023-11-21T01:22:12;12.10;;;6.10;;
77453;SDS011;66538;53.150;18.160;2023-11-21T01:24:39;10.20;;;5.50;;
77453;SDS011;66538;53.150;18.160;2023-11-21T01:27:05;9.60;;;4.50;;
77453;SDS011;66538;53.150;18.160;2023-11-21T01:29:33;10.40;;;5.10;;
77453;SDS011;66538;53.150;18.160;2023-11-21T01:32:02;9.30;;;4.80;;
77453;SDS011;66538;53.150;18.160;2023-11-21T01:34:30;10.40;;;5.20;;
77453;SDS011;66538;53.150;18.160;2023-11-21T01:36:57;11.80;;;5.40;;
77453;SDS011;66538;53.150;18.160;2023-11-21T01:39:24;8.20;;;4.00;;
77453;SDS011;66538;53.150;18.160;2023-11-21T01:41:52;11.40;;;5.70;;
77453;SDS011;66538;53.150;18.160;2023-11-21T01:44:18;11.60;;;5.90;;
77453;SDS011;66538;53.150;18.160;2023-11-21T01:46:45;9.80;;;4.90;;
77453;SDS011;66538;53.150;18.160;2023-11-21T01:49:14;9.10;;;4.50;;
77453;SDS011;66538;53.150;18.160;2023-11-21T01:51:43;9.70;;;4.70;;
77453;SDS011;66538;53.150;18.160;2023-11-21T01:54:12;10.80;;;5.90;;
77453;SDS011;66538;53.150;18.160;2023-11-21T01:56:39;9.90;;;5.80;;
77453;SDS011;66538;53.150;18.160;2023-11-21T01:59:06;9.90;;;5.10;;
77453;SDS011;66538;53.150;18.160;2023-11-21T02:01:33;12.30;;;5.90;;
77453;SDS011;66538;53.150;18.160;2023-11-21T02:04:00;12.00;;;6.40;;
77453;SDS011;66538;53.150;18.160;2023-11-21T02:06:28;11.30;;;5.70;;
77453;SDS011;66538;53.150;18.160;2023-11-21T02:08:57;11.20;;;5.40;;
77453;SDS011;66538;53.150;18.160;2023-11-21T02:11:27;11.20;;;5.90;;
77453;SDS011;66538;53.150;18.160;2023-11-21T02:13:53;9.70;;;4.40;;
77453;SDS011;66538;53.150;18.160;2023-11-21T02:16:20;9.40;;;4.60;;
77453;SDS011;66538;53.150;18.160;2023-11-21T02:18:47;10.30;;;4.90;;
77453;SDS011;66538;53.150;18.160;2023-11-21T02:21:15;11.00;;;4.60;;
77453;SDS011;66538;53.150;18.160;2023-11-21T02:23:41;10.90;;;5.30;;
77453;SDS011;66538;53.150;18.160;2023-11-21T02:26:10;9.80;;;5.00;;
77453;SDS011;66538;53.150;18.160;2023-11-21T02:28:37;10.20;;;4.70;;
77453;SDS011;66538;53.150;18.160;2023-11-21T02:31:05;11.40;;;6.40;;
77453;SDS011;66538;53.150;18.160;2023-11-21T02:33:33;11.20;;;5.80;;
77453;SDS011;66538;53.150;18.160;2023-11-21T02:36:00;12.20;;;5.20;;
77453;SDS011;66538;53.150;18.160;2023-11-21T02:38:28;11.50;;;5.40;;
77453;SDS011;66538;53.150;18.160;2023-11-21T02:40:56;14.80;;;7.00;;
77453;SDS011;66538;53.150;18.160;2023-11-21T02:43:24;12.40;;;5.50;;
77453;SDS011;66538;53.150;18.160;2023-11-21T02:45:51;12.60;;;6.60;;
77453;SDS011;66538;53.150;18.160;2023-11-21T02:48:17;9.70;;;5.00;;
77453;SDS011;66538;53.150;18.160;2023-11-21T02:50:44;10.70;;;5.60;;
77453;SDS011;66538;53.150;18.160;2023-11-21T02:53:11;11.70;;;6.00;;
77453;SDS011;66538;53.150;18.160;2023-11-21T02:55:37;11.10;;;5.90;;
77453;SDS011;66538;53.150;18.160;2023-11-21T02:58:04;12.40;;;5.80;;
77453;SDS011;66538;53.150;18.160;2023-11-21T03:00:30;13.10;;;6.60;;
77453;SDS011;66538;53.150;18.160;2023-11-21T03:02:57;10.60;;;5.20;;
77453;SDS011;66538;53.150;18.160;2023-11-21T03:05:26;11.80;;;5.70;;
77453;SDS011;66538;53.150;18.160;2023-11-21T03:07:52;12.40;;;6.20;;
77453;SDS011;66538;53.150;18.160;2023-11-21T03:10:19;12.00;;;5.60;;
77453;SDS011;66538;53.150;18.160;2023-11-21T03:12:45;10.70;;;5.80;;
77453;SDS011;66538;53.150;18.160;2023-11-21T03:15:12;10.40;;;5.40;;
77453;SDS011;66538;53.150;18.160;2023-11-21T03:17:58;15.60;;;7.00;;
77453;SDS011;66538;53.150;18.160;2023-11-21T03:20:24;11.80;;;5.60;;
77453;SDS011;66538;53.150;18.160;2023-11-21T03:22:51;12.20;;;5.90;;
77453;SDS011;66538;53.150;18.160;2023-11-21T03:25:18;10.70;;;5.20;;
77453;SDS011;66538;53.150;18.160;2023-11-21T03:27:45;14.60;;;6.90;;
77453;SDS011;66538;53.150;18.160;2023-11-21T03:30:11;17.90;;;9.00;;
77453;SDS011;66538;53.150;18.160;2023-11-21T03:32:38;10.80;;;4.70;;
77453;SDS011;66538;53.150;18.160;2023-11-21T03:35:05;13.40;;;5.50;;
77453;SDS011;66538;53.150;18.160;2023-11-21T03:37:32;16.10;;;6.90;;
77453;SDS011;66538;53.150;18.160;2023-11-21T03:39:59;15.00;;;7.00;;
77453;SDS011;66538;53.150;18.160;2023-11-21T03:42:25;11.40;;;5.00;;
77453;SDS011;66538;53.150;18.160;2023-11-21T03:44:53;15.30;;;7.20;;
77453;SDS011;66538;53.150;18.160;2023-11-21T03:47:20;17.80;;;8.90;;
77453;SDS011;66538;53.150;18.160;2023-11-21T03:49:47;17.20;;;7.20;;
77453;SDS011;66538;53.150;18.160;2023-11-21T03:52:16;17.50;;;7.90;;
77453;SDS011;66538;53.150;18.160;2023-11-21T03:54:43;14.60;;;7.70;;
77453;SDS011;66538;53.150;18.160;2023-11-21T03:57:09;11.80;;;5.70;;
77453;SDS011;66538;53.150;18.160;2023-11-21T03:59:39;15.30;;;7.20;;
77453;SDS011;66538;53.150;18.160;2023-11-21T04:02:07;11.50;;;5.50;;
77453;SDS011;66538;53.150;18.160;2023-11-21T04:04:34;14.20;;;6.20;;
77453;SDS011;66538;53.150;18.160;2023-11-21T04:07:02;14.20;;;6.80;;
77453;SDS011;66538;53.150;18.160;2023-11-21T04:09:29;12.30;;;5.90;;
77453;SDS011;66538;53.150;18.160;2023-11-21T04:11:56;11.00;;;5.70;;
77453;SDS011;66538;53.150;18.160;2023-11-21T04:14:23;16.30;;;7.40;;
77453;SDS011;66538;53.150;18.160;2023-11-21T04:16:49;15.50;;;7.50;;
77453;SDS011;66538;53.150;18.160;2023-11-21T04:19:16;14.30;;;6.60;;
77453;SDS011;66538;53.150;18.160;2023-11-21T04:21:43;11.80;;;6.30;;
77453;SDS011;66538;53.150;18.160;2023-11-21T04:24:09;9.60;;;4.20;;
77453;SDS011;66538;53.150;18.160;2023-11-21T04:26:36;12.10;;;5.40;;
77453;SDS011;66538;53.150;18.160;2023-11-21T04:29:04;11.80;;;6.10;;
77453;SDS011;66538;53.150;18.160;2023-11-21T04:31:31;12.60;;;5.20;;
77453;SDS011;66538;53.150;18.160;2023-11-21T04:33:58;12.50;;;6.20;;
77453;SDS011;66538;53.150;18.160;2023-11-21T04:36:25;10.20;;;4.60;;
77453;SDS011;66538;53.150;18.160;2023-11-21T04:38:51;12.60;;;5.30;;
77453;SDS011;66538;53.150;18.160;2023-11-21T04:41:18;12.90;;;6.10;;
77453;SDS011;66538;53.150;18.160;2023-11-21T04:43:45;11.50;;;5.80;;
77453;SDS011;66538;53.150;18.160;2023-11-21T04:46:11;12.00;;;6.20;;
77453;SDS011;66538;53.150;18.160;2023-11-21T04:48:38;10.60;;;4.70;;
77453;SDS011;66538;53.150;18.160;2023-11-21T04:51:05;14.30;;;6.10;;
77453;SDS011;66538;53.150;18.160;2023-11-21T04:53:31;12.20;;;6.00;;
77453;SDS011;66538;53.150;18.160;2023-11-21T04:55:58;10.50;;;4.50;;
77453;SDS011;66538;53.150;18.160;2023-11-21T04:58:25;10.90;;;5.30;;
77453;SDS011;66538;53.150;18.160;2023-11-21T05:00:51;16.30;;;7.10;;
77453;SDS011;66538;53.150;18.160;2023-11-21T05:03:18;12.10;;;5.80;;
77453;SDS011;66538;53.150;18.160;2023-11-21T05:05:45;16.50;;;7.40;;
77453;SDS011;66538;53.150;18.160;2023-11-21T05:08:11;13.70;;;5.80;;
77453;SDS011;66538;53.150;18.160;2023-11-21T05:10:38;15.60;;;6.70;;
77453;SDS011;66538;53.150;18.160;2023-11-21T05:13:05;13.40;;;5.60;;
77453;SDS011;66538;53.150;18.160;2023-11-21T05:15:36;11.80;;;5.20;;
77453;SDS011;66538;53.150;18.160;2023-11-21T05:18:05;11.10;;;5.80;;
77453;SDS011;66538;53.150;18.160;2023-11-21T05:20:31;12.60;;;5.40;;
77453;SDS011;66538;53.150;18.160;2023-11-21T05:22:59;13.20;;;5.60;;
77453;SDS011;66538;53.150;18.160;2023-11-21T05:25:26;16.70;;;7.60;;
77453;SDS011;66538;53.150;18.160;2023-11-21T05:27:52;17.80;;;6.40;;
77453;SDS011;66538;53.150;18.160;2023-11-21T05:30:21;14.70;;;6.70;;
77453;SDS011;66538;53.150;18.160;2023-11-21T05:32:48;13.40;;;6.20;;
77453;SDS011;66538;53.150;18.160;2023-11-21T05:35:16;13.70;;;6.00;;
77453;SDS011;66538;53.150;18.160;2023-11-21T05:37:42;9.80;;;3.70;;
77453;SDS011;66538;53.150;18.160;2023-11-21T05:40:10;16.20;;;7.10;;
77453;SDS011;66538;53.150;18.160;2023-11-21T05:42:37;14.10;;;5.80;;
77453;SDS011;66538;53.150;18.160;2023-11-21T05:45:05;13.20;;;5.90;;
77453;SDS011;66538;53.150;18.160;2023-11-21T05:47:39;15.90;;;6.40;;
77453;SDS011;66538;53.150;18.160;2023-11-21T05:50:10;12.20;;;4.90;;
77453;SDS011;66538;53.150;18.160;2023-11-21T05:52:38;13.20;;;6.10;;
77453;SDS011;66538;53.150;18.160;2023-11-21T05:55:06;13.20;;;6.00;;
77453;SDS011;66538;53.150;18.160;2023-11-21T05:57:34;10.50;;;5.40;;
77453;SDS011;66538;53.150;18.160;2023-11-21T06:00:06;11.30;;;5.50;;
77453;SDS011;66538;53.150;18.160;2023-11-21T06:02:38;15.40;;;5.60;;
77453;SDS011;66538;53.150;18.160;2023-11-21T06:05:06;7.90;;;3.70;;
77453;SDS011;66538;53.150;18.160;2023-11-21T06:07:34;11.50;;;4.60;;
77453;SDS011;66538;53.150;18.160;2023-11-21T06:10:02;15.70;;;5.60;;
77453;SDS011;66538;53.150;18.160;2023-11-21T06:12:32;14.40;;;6.90;;
77453;SDS011;66538;53.150;18.160;2023-11-21T06:15:02;12.20;;;6.10;;
77453;SDS011;66538;53.150;18.160;2023-11-21T06:17:35;14.50;;;6.60;;
77453;SDS011;66538;53.150;18.160;2023-11-21T06:20:03;11.10;;;4.50;;
77453;SDS011;66538;53.150;18.160;2023-11-21T06:22:38;14.80;;;6.30;;
77453;SDS011;66538;53.150;18.160;2023-11-21T06:25:06;14.00;;;5.70;;
77453;SDS011;66538;53.150;18.160;2023-11-21T06:27:37;14.90;;;7.40;;
77453;SDS011;66538;53.150;18.160;2023-11-21T06:30:05;13.60;;;6.10;;
77453;SDS011;66538;53.150;18.160;2023-11-21T06:32:33;11.80;;;5.10;;
77453;SDS011;66538;53.150;18.160;2023-11-21T06:35:01;12.30;;;4.80;;
77453;SDS011;66538;53.150;18.160;2023-11-21T06:37:28;12.00;;;5.50;;
77453;SDS011;66538;53.150;18.160;2023-11-21T06:39:55;13.20;;;6.30;;
77453;SDS011;66538;53.150;18.160;2023-11-21T06:42:25;12.20;;;6.00;;
77453;SDS011;66538;53.150;18.160;2023-11-21T06:44:53;12.80;;;5.20;;
77453;SDS011;66538;53.150;18.160;2023-11-21T06:47:25;9.80;;;4.60;;
77453;SDS011;66538;53.150;18.160;2023-11-21T06:49:52;10.70;;;4.60;;
77453;SDS011;66538;53.150;18.160;2023-11-21T06:52:19;13.10;;;5.30;;
77453;SDS011;66538;53.150;18.160;2023-11-21T06:54:46;9.60;;;4.50;;
77453;SDS011;66538;53.150;18.160;2023-11-21T06:57:14;11.30;;;5.20;;
77453;SDS011;66538;53.150;18.160;2023-11-21T06:59:40;8.60;;;3.90;;
77453;SDS011;66538;53.150;18.160;2023-11-21T07:02:08;11.40;;;5.30;;
77453;SDS011;66538;53.150;18.160;2023-11-21T07:04:35;8.20;;;3.30;;
77453;SDS011;66538;53.150;18.160;2023-11-21T07:07:03;11.10;;;4.70;;
77453;SDS011;66538;53.150;18.160;2023-11-21T07:09:30;8.30;;;3.80;;
77453;SDS011;66538;53.150;18.160;2023-11-21T07:11:57;13.00;;;5.70;;
77453;SDS011;66538;53.150;18.160;2023-11-21T07:14:24;9.50;;;4.30;;
77453;SDS011;66538;53.150;18.160;2023-11-21T07:16:50;10.00;;;4.70;;
77453;SDS011;66538;53.150;18.160;2023-11-21T07:19:19;9.70;;;4.80;;
77453;SDS011;66538;53.150;18.160;2023-11-21T07:21:46;8.70;;;3.80;;
77453;SDS011;66538;53.150;18.160;2023-11-21T07:24:13;8.50;;;4.30;;
77453;SDS011;66538;53.150;18.160;2023-11-21T07:26:40;12.50;;;5.30;;
77453;SDS011;66538;53.150;18.160;2023-11-21T07:29:07;9.20;;;3.60;;
77453;SDS011;66538;53.150;18.160;2023-11-21T07:31:33;7.50;;;3.50;;
77453;SDS011;66538;53.150;18.160;2023-11-21T07:36:29;8.60;;;3.70;;
77453;SDS011;66538;53.150;18.160;2023-11-21T07:38:56;9.30;;;4.40;;
77453;SDS011;66538;53.150;18.160;2023-11-21T07:41:22;11.60;;;4.70;;
77453;SDS011;66538;53.150;18.160;2023-11-21T07:43:49;10.30;;;5.20;;
77453;SDS011;66538;53.150;18.160;2023-11-21T07:46:16;9.30;;;4.70;;
77453;SDS011;66538;53.150;18.160;2023-11-21T07:48:43;8.20;;;3.90;;
77453;SDS011;66538;53.150;18.160;2023-11-21T07:51:10;8.20;;;4.20;;
77453;SDS011;66538;53.150;18.160;2023-11-21T07:53:36;7.90;;;4.00;;
77453;SDS011;66538;53.150;18.160;2023-11-21T07:56:04;6.50;;;3.30;;
77453;SDS011;66538;53.150;18.160;2023-11-21T07:58:35;7.90;;;3.90;;
77453;SDS011;66538;53.150;18.160;2023-11-21T08:01:02;8.80;;;3.80;;
77453;SDS011;66538;53.150;18.160;2023-11-21T08:03:30;9.00;;;3.90;;
77453;SDS011;66538;53.150;18.160;2023-11-21T08:05:58;9.30;;;4.60;;
77453;SDS011;66538;53.150;18.160;2023-11-21T08:08:25;10.50;;;4.60;;
77453;SDS011;66538;53.150;18.160;2023-11-21T08:10:53;10.10;;;3.90;;
77453;SDS011;66538;53.150;18.160;2023-11-21T08:13:25;10.10;;;4.50;;
77453;SDS011;66538;53.150;18.160;2023-11-21T08:15:53;8.30;;;4.10;;
77453;SDS011;66538;53.150;18.160;2023-11-21T08:18:20;10.70;;;4.80;;
77453;SDS011;66538;53.150;18.160;2023-11-21T08:20:47;9.20;;;4.20;;
77453;SDS011;66538;53.150;18.160;2023-11-21T08:23:15;8.20;;;4.10;;
77453;SDS011;66538;53.150;18.160;2023-11-21T08:25:43;8.80;;;4.30;;
77453;SDS011;66538;53.150;18.160;2023-11-21T08:28:10;10.10;;;5.00;;
77453;SDS011;66538;53.150;18.160;2023-11-21T08:30:37;8.90;;;4.00;;
77453;SDS011;66538;53.150;18.160;2023-11-21T08:33:04;11.70;;;4.50;;
77453;SDS011;66538;53.150;18.160;2023-11-21T08:35:31;8.40;;;4.10;;
77453;SDS011;66538;53.150;18.160;2023-11-21T08:37:58;7.10;;;3.10;;
77453;SDS011;66538;53.150;18.160;2023-11-21T08:40:24;8.20;;;3.80;;
77453;SDS011;66538;53.150;18.160;2023-11-21T08:42:51;9.40;;;4.10;;
77453;SDS011;66538;53.150;18.160;2023-11-21T08:45:19;9.40;;;5.10;;
77453;SDS011;66538;53.150;18.160;2023-11-21T08:47:46;12.40;;;5.90;;
77453;SDS011;66538;53.150;18.160;2023-11-21T08:50:13;14.30;;;6.30;;
77453;SDS011;66538;53.150;18.160;2023-11-21T08:52:41;12.00;;;4.70;;
77453;SDS011;66538;53.150;18.160;2023-11-21T08:55:08;10.60;;;4.60;;
77453;SDS011;66538;53.150;18.160;2023-11-21T08:57:35;12.60;;;5.30;;
77453;SDS011;66538;53.150;18.160;2023-11-21T09:00:03;9.70;;;4.30;;
77453;SDS011;66538;53.150;18.160;2023-11-21T09:02:34;8.40;;;4.30;;
77453;SDS011;66538;53.150;18.160;2023-11-21T09:05:00;8.00;;;3.70;;
77453;SDS011;66538;53.150;18.160;2023-11-21T09:07:29;8.50;;;3.90;;
77453;SDS011;66538;53.150;18.160;2023-11-21T09:09:56;9.20;;;4.40;;
77453;SDS011;66538;53.150;18.160;2023-11-21T09:12:23;7.40;;;3.70;;
77453;SDS011;66538;53.150;18.160;2023-11-21T09:14:51;9.10;;;4.20;;
77453;SDS011;66538;53.150;18.160;2023-11-21T09:17:17;8.40;;;4.40;;
77453;SDS011;66538;53.150;18.160;2023-11-21T09:19:45;10.20;;;4.90;;
77453;SDS011;66538;53.150;18.160;2023-11-21T09:22:16;8.20;;;3.50;;
77453;SDS011;66538;53.150;18.160;2023-11-21T09:24:43;7.90;;;3.90;;
77453;SDS011;66538;53.150;18.160;2023-11-21T09:27:10;9.80;;;4.90;;
77453;SDS011;66538;53.150;18.160;2023-11-21T09:29:37;8.70;;;4.40;;
77453;SDS011;66538;53.150;18.160;2023-11-21T09:32:07;6.10;;;3.40;;
77453;SDS011;66538;53.150;18.160;2023-11-21T09:34:34;10.10;;;4.40;;
77453;SDS011;66538;53.150;18.160;2023-11-21T09:37:04;10.50;;;4.40;;
77453;SDS011;66538;53.150;18.160;2023-11-21T09:39:32;10.60;;;4.00;;
77453;SDS011;66538;53.150;18.160;2023-11-21T09:42:08;6.80;;;3.10;;
77453;SDS011;66538;53.150;18.160;2023-11-21T09:47:32;7.70;;;3.10;;
77453;SDS011;66538;53.150;18.160;2023-11-21T09:50:04;9.40;;;4.00;;
77453;SDS011;66538;53.150;18.160;2023-11-21T09:52:43;7.70;;;3.60;;
77453;SDS011;66538;53.150;18.160;2023-11-21T09:55:20;7.30;;;3.50;;
77453;SDS011;66538;53.150;18.160;2023-11-21T09:57:47;9.20;;;4.30;;
77453;SDS011;66538;53.150;18.160;2023-11-21T10:00:15;7.50;;;3.90;;
77453;SDS011;66538;53.150;18.160;2023-11-21T10:02:44;9.10;;;4.20;;
77453;SDS011;66538;53.150;18.160;2023-11-21T10:05:10;7.30;;;3.40;;
77453;SDS011;66538;53.150;18.160;2023-11-21T10:07:39;9.30;;;4.40;;
77453;SDS011;66538;53.150;18.160;2023-11-21T10:10:07;10.60;;;4.40;;
77453;SDS011;66538;53.150;18.160;2023-11-21T10:12:35;7.30;;;4.00;;
77453;SDS011;66538;53.150;18.160;2023-11-21T10:15:07;10.00;;;5.00;;
77453;SDS011;66538;53.150;18.160;2023-11-21T10:17:38;8.90;;;4.50;;
77453;SDS011;66538;53.150;18.160;2023-11-21T10:20:10;8.00;;;3.50;;
77453;SDS011;66538;53.150;18.160;2023-11-21T10:22:40;7.80;;;3.50;;
77453;SDS011;66538;53.150;18.160;2023-11-21T10:25:08;13.90;;;5.90;;
77453;SDS011;66538;53.150;18.160;2023-11-21T10:27:36;8.90;;;4.20;;
77453;SDS011;66538;53.150;18.160;2023-11-21T10:32:32;8.20;;;3.20;;
77453;SDS011;66538;53.150;18.160;2023-11-21T10:34:59;7.10;;;3.50;;
77453;SDS011;66538;53.150;18.160;2023-11-21T10:37:33;8.20;;;3.40;;
77453;SDS011;66538;53.150;18.160;2023-11-21T10:39:59;9.40;;;4.20;;
77453;SDS011;66538;53.150;18.160;2023-11-21T10:42:26;7.50;;;3.10;;
77453;SDS011;66538;53.150;18.160;2023-11-21T10:44:54;9.00;;;4.40;;
77453;SDS011;66538;53.150;18.160;2023-11-21T10:47:21;7.10;;;3.70;;
77453;SDS011;66538;53.150;18.160;2023-11-21T10:49:49;8.60;;;4.30;;
77453;SDS011;66538;53.150;18.160;2023-11-21T10:52:16;9.10;;;3.90;;
77453;SDS011;66538;53.150;18.160;2023-11-21T10:54:46;8.60;;;3.90;;
77453;SDS011;66538;53.150;18.160;2023-11-21T10:57:16;6.70;;;2.80;;
77453;SDS011;66538;53.150;18.160;2023-11-21T10:59:46;7.80;;;3.50;;
77453;SDS011;66538;53.150;18.160;2023-11-21T11:04:51;9.70;;;4.30;;
77453;SDS011;66538;53.150;18.160;2023-11-21T11:07:18;8.70;;;3.60;;
77453;SDS011;66538;53.150;18.160;2023-11-21T11:09:53;8.00;;;3.70;;
77453;SDS011;66538;53.150;18.160;2023-11-21T11:12:21;6.90;;;3.10;;
77453;SDS011;66538;53.150;18.160;2023-11-21T11:14:48;6.30;;;2.60;;
77453;SDS011;66538;53.150;18.160;2023-11-21T11:17:15;8.00;;;3.40;;
77453;SDS011;66538;53.150;18.160;2023-11-21T11:19:42;6.60;;;3.20;;
77453;SDS011;66538;53.150;18.160;2023-11-21T11:22:21;8.20;;;4.50;;
77453;SDS011;66538;53.150;18.160;2023-11-21T11:25:13;8.10;;;4.10;;
77453;SDS011;66538;53.150;18.160;2023-11-21T11:27:48;6.90;;;2.90;;
77453;SDS011;66538;53.150;18.160;2023-11-21T11:33:21;7.50;;;3.40;;
77453;SDS011;66538;53.150;18.160;2023-11-21T11:36:03;7.10;;;3.30;;
77453;SDS011;66538;53.150;18.160;2023-11-21T11:38:50;7.60;;;2.80;;
77453;SDS011;66538;53.150;18.160;2023-11-21T11:41:24;7.80;;;3.90;;
77453;SDS011;66538;53.150;18.160;2023-11-21T11:43:53;8.40;;;3.80;;
77453;SDS011;66538;53.150;18.160;2023-11-21T11:46:20;10.20;;;4.40;;
77453;SDS011;66538;53.150;18.160;2023-11-21T11:49:06;8.70;;;4.80;;
77453;SDS011;66538;53.150;18.160;2023-11-21T11:51:34;9.90;;;4.30;;
77453;SDS011;66538;53.150;18.160;2023-11-21T11:54:02;5.90;;;2.40;;
77453;SDS011;66538;53.150;18.160;2023-11-21T11:56:32;8.30;;;3.50;;
77453;SDS011;66538;53.150;18.160;2023-11-21T11:59:02;7.10;;;2.80;;
77453;SDS011;66538;53.150;18.160;2023-11-21T12:01:31;9.50;;;4.60;;
77453;SDS011;66538;53.150;18.160;2023-11-21T12:06:43;7.40;;;3.10;;
77453;SDS011;66538;53.150;18.160;2023-11-21T12:09:22;7.90;;;2.90;;
77453;SDS011;66538;53.150;18.160;2023-11-21T12:11:50;8.80;;;4.30;;
77453;SDS011;66538;53.150;18.160;2023-11-21T12:14:17;9.10;;;4.30;;
77453;SDS011;66538;53.150;18.160;2023-11-21T12:16:44;7.30;;;4.00;;
77453;SDS011;66538;53.150;18.160;2023-11-21T12:19:11;6.90;;;3.40;;
77453;SDS011;66538;53.150;18.160;2023-11-21T12:21:39;7.30;;;3.60;;
77453;SDS011;66538;53.150;18.160;2023-11-21T12:24:10;7.60;;;3.80;;
77453;SDS011;66538;53.150;18.160;2023-11-21T12:26:40;6.70;;;3.80;;
77453;SDS011;66538;53.150;18.160;2023-11-21T12:29:07;6.10;;;2.90;;
77453;SDS011;66538;53.150;18.160;2023-11-21T12:31:37;9.50;;;4.70;;
77453;SDS011;66538;53.150;18.160;2023-11-21T12:34:04;7.40;;;3.10;;
77453;SDS011;66538;53.150;18.160;2023-11-21T12:36:31;7.10;;;2.60;;
77453;SDS011;66538;53.150;18.160;2023-11-21T12:38:58;7.30;;;3.20;;
77453;SDS011;66538;53.150;18.160;2023-11-21T12:41:24;9.00;;;4.40;;
77453;SDS011;66538;53.150;18.160;2023-11-21T12:43:51;6.30;;;3.50;;
77453;SDS011;66538;53.150;18.160;2023-11-21T12:46:19;6.90;;;3.20;;
77453;SDS011;66538;53.150;18.160;2023-11-21T12:48:46;8.80;;;4.10;;
77453;SDS011;66538;53.150;18.160;2023-11-21T12:51:13;9.20;;;4.00;;
77453;SDS011;66538;53.150;18.160;2023-11-21T12:53:44;7.00;;;3.10;;
77453;SDS011;66538;53.150;18.160;2023-11-21T12:56:13;5.50;;;2.40;;
77453;SDS011;66538;53.150;18.160;2023-11-21T12:58:44;6.60;;;3.50;;
77453;SDS011;66538;53.150;18.160;2023-11-21T13:01:13;6.70;;;3.60;;
77453;SDS011;66538;53.150;18.160;2023-11-21T13:03:47;8.40;;;3.60;;
77453;SDS011;66538;53.150;18.160;2023-11-21T13:06:17;9.20;;;3.10;;
77453;SDS011;66538;53.150;18.160;2023-11-21T13:08:45;7.90;;;3.20;;
77453;SDS011;66538;53.150;18.160;2023-11-21T13:11:12;8.40;;;4.00;;
77453;SDS011;66538;53.150;18.160;2023-11-21T13:13:41;6.30;;;3.20;;
77453;SDS011;66538;53.150;18.160;2023-11-21T13:16:11;6.60;;;3.00;;
77453;SDS011;66538;53.150;18.160;2023-11-21T13:18:39;7.10;;;2.70;;
77453;SDS011;66538;53.150;18.160;2023-11-21T13:21:08;7.90;;;3.30;;
77453;SDS011;66538;53.150;18.160;2023-11-21T13:23:39;5.90;;;2.50;;
77453;SDS011;66538;53.150;18.160;2023-11-21T13:26:07;6.00;;;2.10;;
77453;SDS011;66538;53.150;18.160;2023-11-21T13:28:35;6.40;;;3.10;;
77453;SDS011;66538;53.150;18.160;2023-11-21T13:31:04;5.90;;;2.90;;
77453;SDS011;66538;53.150;18.160;2023-11-21T13:33:50;7.60;;;3.00;;
77453;SDS011;66538;53.150;18.160;2023-11-21T13:36:25;6.90;;;3.30;;
77453;SDS011;66538;53.150;18.160;2023-11-21T13:38:52;6.10;;;3.10;;
77453;SDS011;66538;53.150;18.160;2023-11-21T13:41:19;6.80;;;2.40;;
77453;SDS011;66538;53.150;18.160;2023-11-21T13:43:48;6.00;;;2.80;;
77453;SDS011;66538;53.150;18.160;2023-11-21T13:46:25;7.30;;;3.20;;
77453;SDS011;66538;53.150;18.160;2023-11-21T13:48:51;7.10;;;3.40;;
77453;SDS011;66538;53.150;18.160;2023-11-21T13:51:22;5.50;;;2.40;;
77453;SDS011;66538;53.150;18.160;2023-11-21T13:53:57;5.10;;;2.30;;
77453;SDS011;66538;53.150;18.160;2023-11-21T13:56:25;6.60;;;3.10;;
77453;SDS011;66538;53.150;18.160;2023-11-21T13:58:54;5.20;;;2.60;;
77453;SDS011;66538;53.150;18.160;2023-11-21T14:01:23;6.70;;;2.60;;
77453;SDS011;66538;53.150;18.160;2023-11-21T14:04:09;7.70;;;3.10;;
77453;SDS011;66538;53.150;18.160;2023-11-21T14:06:35;9.50;;;3.70;;
77453;SDS011;66538;53.150;18.160;2023-11-21T14:09:14;6.00;;;2.20;;
77453;SDS011;66538;53.150;18.160;2023-11-21T14:11:52;10.00;;;3.80;;
77453;SDS011;66538;53.150;18.160;2023-11-21T14:14:21;7.50;;;2.70;;
77453;SDS011;66538;53.150;18.160;2023-11-21T14:16:48;5.40;;;2.10;;
77453;SDS011;66538;53.150;18.160;2023-11-21T14:19:15;7.20;;;3.40;;
77453;SDS011;66538;53.150;18.160;2023-11-21T14:21:42;6.70;;;2.50;;
77453;SDS011;66538;53.150;18.160;2023-11-21T14:24:10;6.40;;;2.70;;
77453;SDS011;66538;53.150;18.160;2023-11-21T14:26:40;7.60;;;3.10;;
77453;SDS011;66538;53.150;18.160;2023-11-21T14:29:08;6.30;;;2.80;;
77453;SDS011;66538;53.150;18.160;2023-11-21T14:31:37;5.20;;;2.30;;
77453;SDS011;66538;53.150;18.160;2023-11-21T14:34:03;8.40;;;3.70;;
77453;SDS011;66538;53.150;18.160;2023-11-21T14:39:00;8.00;;;3.70;;
77453;SDS011;66538;53.150;18.160;2023-11-21T14:41:26;5.60;;;2.90;;
77453;SDS011;66538;53.150;18.160;2023-11-21T14:43:55;6.50;;;3.00;;
77453;SDS011;66538;53.150;18.160;2023-11-21T14:46:23;6.70;;;2.40;;
77453;SDS011;66538;53.150;18.160;2023-11-21T14:48:50;6.80;;;2.60;;
77453;SDS011;66538;53.150;18.160;2023-11-21T14:51:33;7.60;;;3.00;;
77453;SDS011;66538;53.150;18.160;2023-11-21T14:54:20;5.90;;;2.40;;